sensor_id;sensor_type;location;lat;lon;timestamp;pressure;altitude;pressure_sealevel;temperature;humidity
79142;BME280;68550;-26.480;29.234;2023-05-07T00:00:34;84558.83;;;24.69;30.63
79142;BME280;68550;-26.480;29.234;2023-05-07T00:03:00;84558.80;;;24.88;30.67
79142;BME280;68550;-26.480;29.234;2023-05-07T00:05:25;84555.56;;;24.59;30.72
79142;BME280;68550;-26.480;29.234;2023-05-07T00:07:50;84557.15;;;24.46;30.90
79142;BME280;68550;-26.480;29.234;2023-05-07T00:12:42;84549.72;;;24.69;30.61
79142;BME280;68550;-26.480;29.234;2023-05-07T00:15:09;84546.79;;;24.60;30.65
79142;BME280;68550;-26.480;29.234;2023-05-07T00:17:32;84547.08;;;24.62;30.59
79142;BME280;68550;-26.480;29.234;2023-05-07T00:19:57;84544.42;;;24.90;30.48
79142;BME280;68550;-26.480;29.234;2023-05-07T00:22:24;84547.84;;;24.61;30.47
79142;BME280;68550;-26.480;29.234;2023-05-07T00:24:47;84548.36;;;24.75;30.59
79142;BME280;68550;-26.480;29.234;2023-05-07T00:27:13;84547.53;;;24.39;30.73
79142;BME280;68550;-26.480;29.234;2023-05-07T00:32:17;84555.32;;;24.56;30.53
79142;BME280;68550;-26.480;29.234;2023-05-07T00:34:31;84562.01;;;24.46;30.64
79142;BME280;68550;-26.480;29.234;2023-05-07T00:36:55;84564.93;;;24.35;30.73
79142;BME280;68550;-26.480;29.234;2023-05-07T00:39:20;84567.48;;;24.77;30.59
79142;BME280;68550;-26.480;29.234;2023-05-07T00:41:48;84570.17;;;24.53;30.56
79142;BME280;68550;-26.480;29.234;2023-05-07T00:44:12;84568.56;;;24.43;30.75
79142;BME280;68550;-26.480;29.234;2023-05-07T00:46:38;84574.89;;;24.55;30.61
79142;BME280;68550;-26.480;29.234;2023-05-07T00:51:28;84578.05;;;24.46;30.68
79142;BME280;68550;-26.480;29.234;2023-05-07T00:56:19;84569.77;;;24.54;30.61
79142;BME280;68550;-26.480;29.234;2023-05-07T00:58:45;84567.63;;;24.49;30.62
79142;BME280;68550;-26.480;29.234;2023-05-07T01:01:10;84564.49;;;24.67;30.41
79142;BME280;68550;-26.480;29.234;2023-05-07T01:05:15;84556.83;;;24.16;31.01
79142;BME280;68550;-26.480;29.234;2023-05-07T01:07:43;84553.87;;;24.30;30.82
79142;BME280;68550;-26.480;29.234;2023-05-07T01:10:10;84553.88;;;24.46;30.64
79142;BME280;68550;-26.480;29.234;2023-05-07T01:12:34;84548.42;;;24.48;30.55
79142;BME280;68550;-26.480;29.234;2023-05-07T01:14:59;84547.50;;;24.72;30.26
79142;BME280;68550;-26.480;29.234;2023-05-07T01:17:24;84547.05;;;24.35;30.65
79142;BME280;68550;-26.480;29.234;2023-05-07T01:19:49;84548.28;;;24.39;30.66
79142;BME280;68550;-26.480;29.234;2023-05-07T01:24:40;84541.95;;;24.35;30.59
79142;BME280;68550;-26.480;29.234;2023-05-07T01:27:05;84538.09;;;24.44;30.46
79142;BME280;68550;-26.480;29.234;2023-05-07T01:29:30;84537.29;;;24.64;30.51
79142;BME280;68550;-26.480;29.234;2023-05-07T01:31:58;84539.35;;;24.40;30.53
79142;BME280;68550;-26.480;29.234;2023-05-07T01:34:22;84537.00;;;24.48;30.40
79142;BME280;68550;-26.480;29.234;2023-05-07T01:36:47;84538.71;;;24.68;30.42
79142;BME280;68550;-26.480;29.234;2023-05-07T01:39:15;84538.73;;;24.40;30.46
79142;BME280;68550;-26.480;29.234;2023-05-07T01:41:38;84541.95;;;24.63;30.45
79142;BME280;68550;-26.480;29.234;2023-05-07T01:44:03;84535.54;;;24.61;30.45
79142;BME280;68550;-26.480;29.234;2023-05-07T01:46:32;84536.24;;;24.53;30.60
79142;BME280;68550;-26.480;29.234;2023-05-07T01:48:54;84534.49;;;24.20;30.70
79142;BME280;68550;-26.480;29.234;2023-05-07T01:51:20;84527.24;;;24.66;30.71
79142;BME280;68550;-26.480;29.234;2023-05-07T01:53:44;84525.66;;;24.34;30.71
79142;BME280;68550;-26.480;29.234;2023-05-07T01:56:10;84525.95;;;24.44;30.55
79142;BME280;68550;-26.480;29.234;2023-05-07T01:58:35;84523.46;;;24.46;30.82
79142;BME280;68550;-26.480;29.234;2023-05-07T02:01:00;84522.63;;;24.31;30.69
79142;BME280;68550;-26.480;29.234;2023-05-07T02:03:28;84522.86;;;24.52;30.73
79142;BME280;68550;-26.480;29.234;2023-05-07T02:05:51;84521.47;;;24.08;30.98
79142;BME280;68550;-26.480;29.234;2023-05-07T02:08:16;84521.12;;;24.18;30.83
79142;BME280;68550;-26.480;29.234;2023-05-07T02:10:44;84520.49;;;24.14;30.82
79142;BME280;68550;-26.480;29.234;2023-05-07T02:13:07;84519.32;;;24.25;30.70
79142;BME280;68550;-26.480;29.234;2023-05-07T02:15:32;84517.80;;;23.92;30.77
79142;BME280;68550;-26.480;29.234;2023-05-07T02:18:00;84520.34;;;24.60;30.48
79142;BME280;68550;-26.480;29.234;2023-05-07T02:20:23;84519.92;;;24.54;30.55
79142;BME280;68550;-26.480;29.234;2023-05-07T02:22:48;84525.11;;;24.27;30.56
79142;BME280;68550;-26.480;29.234;2023-05-07T02:25:14;84526.45;;;24.11;30.75
79142;BME280;68550;-26.480;29.234;2023-05-07T02:27:39;84530.60;;;24.30;30.74
79142;BME280;68550;-26.480;29.234;2023-05-07T02:30:06;84528.52;;;24.35;30.69
79142;BME280;68550;-26.480;29.234;2023-05-07T02:32:30;84527.81;;;24.16;30.60
79142;BME280;68550;-26.480;29.234;2023-05-07T02:34:55;84526.78;;;24.11;30.60
79142;BME280;68550;-26.480;29.234;2023-05-07T02:37:20;84529.32;;;24.06;30.66
79142;BME280;68550;-26.480;29.234;2023-05-07T02:39:46;84531.18;;;23.99;30.48
79142;BME280;68550;-26.480;29.234;2023-05-07T02:42:14;84534.98;;;24.14;30.55
79142;BME280;68550;-26.480;29.234;2023-05-07T02:44:37;84536.34;;;24.20;30.46
79142;BME280;68550;-26.480;29.234;2023-05-07T02:47:03;84534.15;;;24.05;30.63
79142;BME280;68550;-26.480;29.234;2023-05-07T02:49:27;84532.84;;;24.47;30.35
79142;BME280;68550;-26.480;29.234;2023-05-07T02:51:53;84534.44;;;24.46;30.37
79142;BME280;68550;-26.480;29.234;2023-05-07T02:54:18;84535.11;;;24.30;30.27
79142;BME280;68550;-26.480;29.234;2023-05-07T02:56:43;84540.28;;;24.19;30.40
79142;BME280;68550;-26.480;29.234;2023-05-07T02:59:11;84540.57;;;24.17;30.40
79142;BME280;68550;-26.480;29.234;2023-05-07T03:01:34;84541.53;;;24.22;30.32
79142;BME280;68550;-26.480;29.234;2023-05-07T03:04:00;84545.86;;;24.48;30.31
79142;BME280;68550;-26.480;29.234;2023-05-07T03:06:25;84547.97;;;24.55;30.25
79142;BME280;68550;-26.480;29.234;2023-05-07T03:08:50;84548.36;;;24.34;30.18
79142;BME280;68550;-26.480;29.234;2023-05-07T03:11:15;84550.37;;;24.31;30.21
79142;BME280;68550;-26.480;29.234;2023-05-07T03:13:41;84551.42;;;24.52;30.23
79142;BME280;68550;-26.480;29.234;2023-05-07T03:16:07;84556.29;;;24.47;30.28
79142;BME280;68550;-26.480;29.234;2023-05-07T03:18:32;84561.42;;;24.18;30.34
79142;BME280;68550;-26.480;29.234;2023-05-07T03:20:57;84566.01;;;24.33;30.40
79142;BME280;68550;-26.480;29.234;2023-05-07T03:23:23;84570.40;;;24.36;30.43
79142;BME280;68550;-26.480;29.234;2023-05-07T03:25:48;84567.71;;;24.16;30.34
79142;BME280;68550;-26.480;29.234;2023-05-07T03:28:13;84567.40;;;24.15;30.34
79142;BME280;68550;-26.480;29.234;2023-05-07T03:30:42;84568.76;;;24.14;30.32
79142;BME280;68550;-26.480;29.234;2023-05-07T03:33:04;84568.25;;;24.54;30.18
79142;BME280;68550;-26.480;29.234;2023-05-07T03:35:29;84562.94;;;24.50;30.20
79142;BME280;68550;-26.480;29.234;2023-05-07T03:37:55;84566.81;;;24.18;30.28
79142;BME280;68550;-26.480;29.234;2023-05-07T03:40:20;84571.22;;;23.98;30.25
79142;BME280;68550;-26.480;29.234;2023-05-07T03:42:48;84573.38;;;23.98;30.25
79142;BME280;68550;-26.480;29.234;2023-05-07T03:45:11;84583.09;;;24.09;30.36
79142;BME280;68550;-26.480;29.234;2023-05-07T03:47:36;84589.60;;;24.38;30.31
79142;BME280;68550;-26.480;29.234;2023-05-07T03:50:02;84589.79;;;24.09;30.33
79142;BME280;68550;-26.480;29.234;2023-05-07T03:52:27;84592.17;;;24.17;30.24
79142;BME280;68550;-26.480;29.234;2023-05-07T03:54:52;84594.29;;;24.06;30.34
79142;BME280;68550;-26.480;29.234;2023-05-07T03:57:18;84594.15;;;24.30;30.30
79142;BME280;68550;-26.480;29.234;2023-05-07T03:59:43;84591.35;;;24.27;30.35
79142;BME280;68550;-26.480;29.234;2023-05-07T04:02:09;84591.49;;;24.31;30.30
79142;BME280;68550;-26.480;29.234;2023-05-07T04:04:35;84592.56;;;23.88;30.22
79142;BME280;68550;-26.480;29.234;2023-05-07T04:07:00;84589.68;;;24.31;30.27
79142;BME280;68550;-26.480;29.234;2023-05-07T04:09:27;84590.35;;;23.93;30.41
79142;BME280;68550;-26.480;29.234;2023-05-07T04:11:50;84591.38;;;24.17;30.13
79142;BME280;68550;-26.480;29.234;2023-05-07T04:14:15;84592.63;;;23.96;30.30
79142;BME280;68550;-26.480;29.234;2023-05-07T04:16:41;84595.81;;;23.89;30.30
79142;BME280;68550;-26.480;29.234;2023-05-07T04:19:07;84599.76;;;23.85;30.30
79142;BME280;68550;-26.480;29.234;2023-05-07T04:21:32;84600.58;;;23.93;30.23
79142;BME280;68550;-26.480;29.234;2023-05-07T04:23:57;84601.46;;;24.25;30.07
79142;BME280;68550;-26.480;29.234;2023-05-07T04:26:23;84604.52;;;24.00;30.07
79142;BME280;68550;-26.480;29.234;2023-05-07T04:28:48;84603.05;;;24.15;30.18
79142;BME280;68550;-26.480;29.234;2023-05-07T04:31:13;84606.53;;;24.29;30.01
79142;BME280;68550;-26.480;29.234;2023-05-07T04:33:39;84602.54;;;24.23;30.09
79142;BME280;68550;-26.480;29.234;2023-05-07T04:36:04;84598.85;;;24.04;30.03
79142;BME280;68550;-26.480;29.234;2023-05-07T04:38:29;84599.71;;;24.28;30.02
79142;BME280;68550;-26.480;29.234;2023-05-07T04:40:55;84602.71;;;24.25;30.10
79142;BME280;68550;-26.480;29.234;2023-05-07T04:43:20;84605.09;;;23.85;30.26
79142;BME280;68550;-26.480;29.234;2023-05-07T04:45:47;84610.96;;;24.10;30.25
79142;BME280;68550;-26.480;29.234;2023-05-07T04:48:11;84616.24;;;24.19;30.10
79142;BME280;68550;-26.480;29.234;2023-05-07T04:50:36;84618.80;;;23.89;30.39
79142;BME280;68550;-26.480;29.234;2023-05-07T04:53:00;84618.85;;;24.04;30.24
79142;BME280;68550;-26.480;29.234;2023-05-07T04:55:26;84623.08;;;24.02;30.24
79142;BME280;68550;-26.480;29.234;2023-05-07T04:57:54;84625.28;;;24.16;30.07
79142;BME280;68550;-26.480;29.234;2023-05-07T05:00:17;84628.29;;;23.86;30.13
79142;BME280;68550;-26.480;29.234;2023-05-07T05:02:42;84628.24;;;24.07;30.19
79142;BME280;68550;-26.480;29.234;2023-05-07T05:05:09;84628.92;;;24.15;30.07
79142;BME280;68550;-26.480;29.234;2023-05-07T05:07:34;84627.69;;;24.13;30.14
79142;BME280;68550;-26.480;29.234;2023-05-07T05:09:59;84631.85;;;23.94;30.38
79142;BME280;68550;-26.480;29.234;2023-05-07T05:12:25;84635.54;;;23.62;30.52
79142;BME280;68550;-26.480;29.234;2023-05-07T05:14:50;84639.15;;;24.02;30.30
79142;BME280;68550;-26.480;29.234;2023-05-07T05:17:15;84640.72;;;24.11;30.21
79142;BME280;68550;-26.480;29.234;2023-05-07T05:19:40;84645.21;;;24.26;30.04
79142;BME280;68550;-26.480;29.234;2023-05-07T05:22:06;84649.65;;;24.15;30.16
79142;BME280;68550;-26.480;29.234;2023-05-07T05:24:34;84653.93;;;23.86;29.96
79142;BME280;68550;-26.480;29.234;2023-05-07T05:26:57;84655.12;;;24.38;29.91
79142;BME280;68550;-26.480;29.234;2023-05-07T05:29:23;84661.14;;;24.28;30.06
79142;BME280;68550;-26.480;29.234;2023-05-07T05:31:49;84680.16;;;24.34;30.03
79142;BME280;68550;-26.480;29.234;2023-05-07T05:34:14;84802.72;;;24.09;30.12
79142;BME280;68550;-26.480;29.234;2023-05-07T05:36:40;84832.54;;;23.87;30.57
79142;BME280;68550;-26.480;29.234;2023-05-07T05:39:05;84843.61;;;23.76;30.99
79142;BME280;68550;-26.480;29.234;2023-05-07T05:41:31;84851.91;;;23.58;31.02
79142;BME280;68550;-26.480;29.234;2023-05-07T05:43:56;84852.63;;;23.87;30.96
79142;BME280;68550;-26.480;29.234;2023-05-07T05:46:21;84864.48;;;23.25;31.20
79142;BME280;68550;-26.480;29.234;2023-05-07T05:48:47;84876.39;;;23.74;31.11
79142;BME280;68550;-26.480;29.234;2023-05-07T05:53:38;84889.70;;;23.70;31.14
79142;BME280;68550;-26.480;29.234;2023-05-07T05:56:03;84892.41;;;23.58;31.04
79142;BME280;68550;-26.480;29.234;2023-05-07T05:58:28;84901.72;;;23.78;31.03
79142;BME280;68550;-26.480;29.234;2023-05-07T06:00:57;84910.19;;;23.49;31.12
79142;BME280;68550;-26.480;29.234;2023-05-07T06:03:19;84909.56;;;23.93;30.86
79142;BME280;68550;-26.480;29.234;2023-05-07T06:05:45;84911.19;;;23.69;31.18
79142;BME280;68550;-26.480;29.234;2023-05-07T06:08:10;84902.43;;;23.70;30.86
79142;BME280;68550;-26.480;29.234;2023-05-07T06:10:37;84905.95;;;23.58;30.97
79142;BME280;68550;-26.480;29.234;2023-05-07T06:13:01;84906.89;;;23.81;30.98
79142;BME280;68550;-26.480;29.234;2023-05-07T06:15:28;84919.42;;;23.87;30.93
79142;BME280;68550;-26.480;29.234;2023-05-07T06:17:51;84911.79;;;23.72;30.78
79142;BME280;68550;-26.480;29.234;2023-05-07T06:20:18;84912.46;;;23.42;31.12
79142;BME280;68550;-26.480;29.234;2023-05-07T06:22:43;84911.37;;;23.69;30.76
79142;BME280;68550;-26.480;29.234;2023-05-07T06:25:10;84908.45;;;23.52;31.22
79142;BME280;68550;-26.480;29.234;2023-05-07T06:27:34;84916.09;;;23.62;31.05
79142;BME280;68550;-26.480;29.234;2023-05-07T06:29:59;84920.65;;;23.71;31.02
79142;BME280;68550;-26.480;29.234;2023-05-07T06:32:26;84911.88;;;23.63;31.08
79142;BME280;68550;-26.480;29.234;2023-05-07T06:34:50;84900.35;;;23.37;30.99
79142;BME280;68550;-26.480;29.234;2023-05-07T06:37:15;84907.25;;;23.47;31.00
79142;BME280;68550;-26.480;29.234;2023-05-07T06:39:41;84918.79;;;23.19;31.28
79142;BME280;68550;-26.480;29.234;2023-05-07T06:42:09;84925.76;;;23.27;31.26
79142;BME280;68550;-26.480;29.234;2023-05-07T06:44:31;84920.32;;;23.86;30.92
79142;BME280;68550;-26.480;29.234;2023-05-07T06:46:57;84918.47;;;23.77;30.89
79142;BME280;68550;-26.480;29.234;2023-05-07T06:49:22;84923.05;;;23.61;30.82
79142;BME280;68550;-26.480;29.234;2023-05-07T06:51:47;84912.72;;;23.81;30.85
79142;BME280;68550;-26.480;29.234;2023-05-07T06:54:13;84915.87;;;23.79;30.81
79142;BME280;68550;-26.480;29.234;2023-05-07T06:56:40;84914.16;;;23.58;30.87
79142;BME280;68550;-26.480;29.234;2023-05-07T06:59:04;84913.09;;;23.48;30.86
79142;BME280;68550;-26.480;29.234;2023-05-07T07:04:17;84927.39;;;22.24;33.36
79142;BME280;68550;-26.480;29.234;2023-05-07T07:06:40;84919.06;;;22.72;32.42
79142;BME280;68550;-26.480;29.234;2023-05-07T07:09:05;84913.73;;;22.97;31.82
79142;BME280;68550;-26.480;29.234;2023-05-07T07:11:31;84914.86;;;23.14;31.54
79142;BME280;68550;-26.480;29.234;2023-05-07T07:13:58;84923.70;;;23.47;31.17
79142;BME280;68550;-26.480;29.234;2023-05-07T07:16:22;84917.73;;;23.59;30.94
79142;BME280;68550;-26.480;29.234;2023-05-07T07:18:47;84918.29;;;23.42;31.09
79142;BME280;68550;-26.480;29.234;2023-05-07T07:21:12;84919.13;;;23.61;30.92
79142;BME280;68550;-26.480;29.234;2023-05-07T07:23:42;84916.60;;;23.85;30.66
79142;BME280;68550;-26.480;29.234;2023-05-07T07:26:03;84919.64;;;23.74;30.77
79142;BME280;68550;-26.480;29.234;2023-05-07T07:28:52;84915.07;;;23.72;30.75
79142;BME280;68550;-26.480;29.234;2023-05-07T07:30:54;84920.02;;;23.45;30.74
79142;BME280;68550;-26.480;29.234;2023-05-07T07:40:36;84912.58;;;23.75;30.69
79142;BME280;68550;-26.480;29.234;2023-05-07T07:43:01;84904.61;;;23.62;30.51
79142;BME280;68550;-26.480;29.234;2023-05-07T07:45:26;84897.72;;;23.82;30.36
79142;BME280;68550;-26.480;29.234;2023-05-07T07:47:52;84899.35;;;24.05;30.37
79142;BME280;68550;-26.480;29.234;2023-05-07T07:57:34;84888.42;;;24.16;29.85
79142;BME280;68550;-26.480;29.234;2023-05-07T08:04:50;84887.69;;;23.66;30.16
79142;BME280;68550;-26.480;29.234;2023-05-07T08:07:15;84887.45;;;24.08;29.98
79142;BME280;68550;-26.480;29.234;2023-05-07T08:09:41;84889.69;;;23.89;30.15
79142;BME280;68550;-26.480;29.234;2023-05-07T08:12:06;84884.14;;;24.13;29.59
79142;BME280;68550;-26.480;29.234;2023-05-07T08:14:32;84868.44;;;23.90;29.15
79142;BME280;68550;-26.480;29.234;2023-05-07T08:19:23;84861.34;;;24.03;29.74
79142;BME280;68550;-26.480;29.234;2023-05-07T08:21:50;84857.27;;;24.11;29.94
79142;BME280;68550;-26.480;29.234;2023-05-07T08:24:13;84858.63;;;24.06;30.00
79142;BME280;68550;-26.480;29.234;2023-05-07T08:26:39;84866.74;;;23.92;29.95
79142;BME280;68550;-26.480;29.234;2023-05-07T08:29:12;84870.30;;;24.07;29.98
79142;BME280;68550;-26.480;29.234;2023-05-07T08:31:31;84858.55;;;24.17;29.65
79142;BME280;68550;-26.480;29.234;2023-05-07T08:34:02;84871.07;;;23.94;29.92
79142;BME280;68550;-26.480;29.234;2023-05-07T08:36:20;84868.95;;;23.98;29.91
79142;BME280;68550;-26.480;29.234;2023-05-07T08:38:45;84862.62;;;24.10;29.76
79142;BME280;68550;-26.480;29.234;2023-05-07T08:41:11;84858.99;;;24.25;29.64
79142;BME280;68550;-26.480;29.234;2023-05-07T08:43:39;84861.68;;;24.23;29.89
79142;BME280;68550;-26.480;29.234;2023-05-07T08:46:02;84859.87;;;24.19;29.74
79142;BME280;68550;-26.480;29.234;2023-05-07T08:48:28;84853.12;;;24.22;29.72
79142;BME280;68550;-26.480;29.234;2023-05-07T08:50:54;84856.29;;;24.30;29.90
79142;BME280;68550;-26.480;29.234;2023-05-07T08:53:20;84854.88;;;23.91;29.97
79142;BME280;68550;-26.480;29.234;2023-05-07T08:55:47;84860.67;;;24.14;29.78
79142;BME280;68550;-26.480;29.234;2023-05-07T08:58:09;84857.06;;;24.14;30.04
79142;BME280;68550;-26.480;29.234;2023-05-07T09:00:34;84855.12;;;24.16;29.72
79142;BME280;68550;-26.480;29.234;2023-05-07T09:03:01;84857.14;;;24.02;29.90
79142;BME280;68550;-26.480;29.234;2023-05-07T09:05:25;84853.80;;;24.14;29.78
79142;BME280;68550;-26.480;29.234;2023-05-07T09:08:03;84859.09;;;23.15;30.58
79142;BME280;68550;-26.480;29.234;2023-05-07T09:10:30;84861.06;;;23.69;30.24
79142;BME280;68550;-26.480;29.234;2023-05-07T09:12:53;84849.77;;;23.88;29.82
79142;BME280;68550;-26.480;29.234;2023-05-07T09:15:19;84853.52;;;24.21;29.70
79142;BME280;68550;-26.480;29.234;2023-05-07T09:17:44;84850.77;;;24.24;29.67
79142;BME280;68550;-26.480;29.234;2023-05-07T09:20:09;84843.72;;;23.98;29.67
79142;BME280;68550;-26.480;29.234;2023-05-07T09:22:37;84835.66;;;24.02;29.82
79142;BME280;68550;-26.480;29.234;2023-05-07T09:25:01;84828.62;;;24.21;29.40
79142;BME280;68550;-26.480;29.234;2023-05-07T09:27:26;84830.38;;;24.16;29.62
79142;BME280;68550;-26.480;29.234;2023-05-07T09:29:51;84826.65;;;24.45;29.39
79142;BME280;68550;-26.480;29.234;2023-05-07T09:32:17;84816.60;;;24.36;29.48
79142;BME280;68550;-26.480;29.234;2023-05-07T09:34:44;84821.98;;;24.06;29.54
79142;BME280;68550;-26.480;29.234;2023-05-07T09:37:08;84812.27;;;24.10;29.43
79142;BME280;68550;-26.480;29.234;2023-05-07T09:39:39;84812.14;;;24.18;29.31
79142;BME280;68550;-26.480;29.234;2023-05-07T09:41:59;84808.43;;;24.44;29.30
79142;BME280;68550;-26.480;29.234;2023-05-07T09:44:23;84806.79;;;24.17;29.31
79142;BME280;68550;-26.480;29.234;2023-05-07T09:46:57;84814.19;;;24.04;29.30
79142;BME280;68550;-26.480;29.234;2023-05-07T09:49:20;84815.75;;;24.26;29.37
79142;BME280;68550;-26.480;29.234;2023-05-07T09:51:43;84802.29;;;24.72;29.09
79142;BME280;68550;-26.480;29.234;2023-05-07T09:54:05;84803.38;;;23.98;29.30
79142;BME280;68550;-26.480;29.234;2023-05-07T09:56:30;84790.99;;;24.44;29.03
79142;BME280;68550;-26.480;29.234;2023-05-07T09:59:00;84782.36;;;24.34;28.92
79142;BME280;68550;-26.480;29.234;2023-05-07T10:01:22;84773.75;;;24.60;28.88
79142;BME280;68550;-26.480;29.234;2023-05-07T10:03:47;84779.32;;;24.53;28.97
79142;BME280;68550;-26.480;29.234;2023-05-07T10:06:13;84772.61;;;24.25;29.02
79142;BME280;68550;-26.480;29.234;2023-05-07T10:08:38;84769.10;;;24.21;29.05
79142;BME280;68550;-26.480;29.234;2023-05-07T10:11:04;84759.99;;;24.26;28.98
79142;BME280;68550;-26.480;29.234;2023-05-07T10:13:31;84755.85;;;24.19;28.99
79142;BME280;68550;-26.480;29.234;2023-05-07T10:15:54;84737.38;;;24.24;28.95
79142;BME280;68550;-26.480;29.234;2023-05-07T10:18:21;84739.86;;;24.53;28.82
79142;BME280;68550;-26.480;29.234;2023-05-07T10:20:46;84735.16;;;24.19;28.91
79142;BME280;68550;-26.480;29.234;2023-05-07T10:23:16;84729.36;;;24.08;28.91
79142;BME280;68550;-26.480;29.234;2023-05-07T10:25:36;84720.69;;;24.62;28.81
79142;BME280;68550;-26.480;29.234;2023-05-07T10:28:06;84716.92;;;24.39;28.60
79142;BME280;68550;-26.480;29.234;2023-05-07T10:30:37;84712.99;;;24.73;28.42
79142;BME280;68550;-26.480;29.234;2023-05-07T10:32:55;84709.43;;;24.45;28.39
79142;BME280;68550;-26.480;29.234;2023-05-07T10:35:19;84709.79;;;24.35;28.51
79142;BME280;68550;-26.480;29.234;2023-05-07T10:37:44;84715.39;;;24.13;28.49
79142;BME280;68550;-26.480;29.234;2023-05-07T10:40:11;84708.54;;;24.45;28.46
79142;BME280;68550;-26.480;29.234;2023-05-07T10:42:33;84703.28;;;24.52;28.37
79142;BME280;68550;-26.480;29.234;2023-05-07T10:45:12;84699.68;;;24.40;28.52
79142;BME280;68550;-26.480;29.234;2023-05-07T10:47:24;84696.93;;;24.62;28.27
79142;BME280;68550;-26.480;29.234;2023-05-07T10:52:17;84698.69;;;24.48;28.35
79142;BME280;68550;-26.480;29.234;2023-05-07T10:54:41;84693.99;;;24.50;28.35
79142;BME280;68550;-26.480;29.234;2023-05-07T10:59:34;84686.66;;;24.47;28.21
79142;BME280;68550;-26.480;29.234;2023-05-07T11:01:58;84685.56;;;24.76;28.19
79142;BME280;68550;-26.480;29.234;2023-05-07T11:04:26;84685.30;;;24.63;28.14
79142;BME280;68550;-26.480;29.234;2023-05-07T11:09:13;84679.15;;;24.60;28.14
79142;BME280;68550;-26.480;29.234;2023-05-07T11:11:47;84677.60;;;24.55;28.14
79142;BME280;68550;-26.480;29.234;2023-05-07T11:14:04;84677.46;;;24.60;28.05
79142;BME280;68550;-26.480;29.234;2023-05-07T11:16:31;84669.15;;;24.62;28.07
79142;BME280;68550;-26.480;29.234;2023-05-07T11:18:56;84671.46;;;24.69;28.02
79142;BME280;68550;-26.480;29.234;2023-05-07T11:21:32;84667.15;;;24.31;28.14
79142;BME280;68550;-26.480;29.234;2023-05-07T11:23:58;84661.73;;;24.65;27.98
79142;BME280;68550;-26.480;29.234;2023-05-07T11:26:11;84655.27;;;24.76;27.90
79142;BME280;68550;-26.480;29.234;2023-05-07T11:28:40;84650.97;;;24.35;28.08
79142;BME280;68550;-26.480;29.234;2023-05-07T11:31:02;84646.95;;;24.74;27.99
79142;BME280;68550;-26.480;29.234;2023-05-07T11:33:27;84644.03;;;24.44;28.07
79142;BME280;68550;-26.480;29.234;2023-05-07T11:35:54;84641.04;;;24.54;28.18
79142;BME280;68550;-26.480;29.234;2023-05-07T11:38:19;84640.79;;;24.60;28.16
79142;BME280;68550;-26.480;29.234;2023-05-07T11:40:51;84641.38;;;24.69;28.06
79142;BME280;68550;-26.480;29.234;2023-05-07T11:43:11;84636.41;;;24.72;27.99
79142;BME280;68550;-26.480;29.234;2023-05-07T11:45:35;84635.04;;;24.57;28.13
79142;BME280;68550;-26.480;29.234;2023-05-07T11:48:02;84630.09;;;24.59;28.14
79142;BME280;68550;-26.480;29.234;2023-05-07T11:50:25;84627.18;;;24.73;28.05
79142;BME280;68550;-26.480;29.234;2023-05-07T11:52:52;84623.82;;;24.43;28.24
79142;BME280;68550;-26.480;29.234;2023-05-07T11:55:19;84625.94;;;24.62;28.11
79142;BME280;68550;-26.480;29.234;2023-05-07T11:57:44;84625.87;;;24.47;28.25
79142;BME280;68550;-26.480;29.234;2023-05-07T12:00:08;84622.59;;;24.87;28.11
79142;BME280;68550;-26.480;29.234;2023-05-07T12:02:32;84621.26;;;24.58;28.12
79142;BME280;68550;-26.480;29.234;2023-05-07T12:05:00;84623.16;;;24.58;28.17
79142;BME280;68550;-26.480;29.234;2023-05-07T12:07:24;84623.56;;;24.52;28.22
79142;BME280;68550;-26.480;29.234;2023-05-07T12:09:49;84621.01;;;24.63;28.13
79142;BME280;68550;-26.480;29.234;2023-05-07T12:12:14;84619.14;;;24.66;28.13
79142;BME280;68550;-26.480;29.234;2023-05-07T12:14:42;84621.27;;;24.60;28.20
79142;BME280;68550;-26.480;29.234;2023-05-07T12:17:05;84620.36;;;24.62;28.21
79142;BME280;68550;-26.480;29.234;2023-05-07T12:19:31;84622.25;;;24.46;28.16
79142;BME280;68550;-26.480;29.234;2023-05-07T12:21:56;84622.56;;;24.35;28.23
79142;BME280;68550;-26.480;29.234;2023-05-07T12:24:23;84625.87;;;24.91;28.16
79142;BME280;68550;-26.480;29.234;2023-05-07T12:26:53;84624.34;;;24.71;28.17
79142;BME280;68550;-26.480;29.234;2023-05-07T12:29:12;84621.85;;;24.68;28.23
79142;BME280;68550;-26.480;29.234;2023-05-07T12:31:41;84621.58;;;24.60;28.30
79142;BME280;68550;-26.480;29.234;2023-05-07T12:34:03;84617.21;;;24.59;28.26
79142;BME280;68550;-26.480;29.234;2023-05-07T12:36:38;84621.67;;;24.47;28.40
79142;BME280;68550;-26.480;29.234;2023-05-07T12:38:55;84624.85;;;24.93;28.18
79142;BME280;68550;-26.480;29.234;2023-05-07T12:41:19;84618.12;;;24.46;28.17
79142;BME280;68550;-26.480;29.234;2023-05-07T12:43:46;84615.64;;;24.76;28.09
79142;BME280;68550;-26.480;29.234;2023-05-07T12:46:10;84613.23;;;24.69;28.16
79142;BME280;68550;-26.480;29.234;2023-05-07T12:48:38;84611.29;;;24.63;28.21
79142;BME280;68550;-26.480;29.234;2023-05-07T12:51:03;84613.81;;;24.58;28.29
79142;BME280;68550;-26.480;29.234;2023-05-07T12:53:27;84614.13;;;24.56;28.29
79142;BME280;68550;-26.480;29.234;2023-05-07T12:55:53;84620.00;;;24.83;28.20
79142;BME280;68550;-26.480;29.234;2023-05-07T12:58:18;84612.49;;;25.05;28.01
79142;BME280;68550;-26.480;29.234;2023-05-07T13:00:42;84612.75;;;24.80;28.02
79142;BME280;68550;-26.480;29.234;2023-05-07T13:03:07;84608.11;;;24.68;28.17
79142;BME280;68550;-26.480;29.234;2023-05-07T13:05:33;84609.38;;;24.71;28.12
79142;BME280;68550;-26.480;29.234;2023-05-07T13:07:58;84608.52;;;24.85;27.99
79142;BME280;68550;-26.480;29.234;2023-05-07T13:10:24;84607.56;;;24.63;27.96
79142;BME280;68550;-26.480;29.234;2023-05-07T13:12:49;84605.40;;;24.51;28.06
79142;BME280;68550;-26.480;29.234;2023-05-07T13:15:15;84602.85;;;24.80;28.02
79142;BME280;68550;-26.480;29.234;2023-05-07T13:17:40;84596.60;;;24.62;27.97